Time;durP1;ratioP1;P1;durP2;ratioP2;P2;SDS_P1;SDS_P2;PMS_P1;PMS_P2;Temp;Humidity;BMP_temperature;BMP_pressure;BME280_temperature;BME280_humidity;BME280_pressure;Samples;Min_cycle;Max_cycle;Signal;HPM_P1;HPM_P2
2023/10/06 00:01:42;;;;;;;10.32;3.72;;;;;;;13.78;96.21;98419.75;4988631;28;1289132;-74
2023/10/06 00:04:12;;;;;;;10.57;3.47;;;;;;;13.86;95.73;98424.84;5050330;28;20040;-74
2023/10/06 00:06:38;;;;;;;8.05;3.08;;;;;;;13.73;95.89;98419.53;5050435;28;20091;-73
2023/10/06 00:09:06;;;;;;;9.82;3.47;;;;;;;13.88;95.53;98415.63;5050630;28;20072;-74
2023/10/06 00:11:32;;;;;;;11.07;4.10;;;;;;;14.02;94.86;98419.91;5017247;28;20056;-74
2023/10/06 00:14:01;;;;;;;10.50;3.42;;;;;;;14.21;94.16;98412.84;5050365;28;20049;-72
2023/10/06 00:16:38;;;;;;;11.75;3.70;;;;;;;14.15;93.57;98422.50;5017183;28;20044;-73
2023/10/06 00:19:21;;;;;;;11.32;3.67;;;;;;;14.20;93.79;98421.88;5035347;28;20479;-74
2023/10/06 00:21:53;;;;;;;13.00;3.78;;;;;;;14.04;93.72;98419.69;5019203;28;20068;-73
2023/10/06 00:24:25;;;;;;;15.25;4.32;;;;;;;14.07;93.70;98422.75;5018120;28;20071;-73
2023/10/06 00:26:52;;;;;;;10.25;4.10;;;;;;;14.03;93.53;98428.69;5018093;28;20064;-75
2023/10/06 00:29:22;;;;;;;10.75;4.00;;;;;;;14.08;93.17;98412.88;5017291;28;20459;-75
2023/10/06 00:31:49;;;;;;;9.83;3.97;;;;;;;14.29;93.08;98409.97;5018381;28;20467;-75
2023/10/06 00:34:19;;;;;;;13.30;4.35;;;;;;;14.08;93.08;98407.56;5000926;28;20048;-75
2023/10/06 00:36:56;;;;;;;9.30;3.35;;;;;;;14.41;92.72;98400.25;5051434;28;20040;-76
2023/10/06 00:39:22;;;;;;;8.30;3.78;;;;;;;14.29;92.35;98389.44;5018731;28;20048;-75
2023/10/06 00:42:04;;;;;;;12.10;3.88;;;;;;;14.42;92.30;98383.22;5034294;28;20049;-74
2023/10/06 00:44:30;;;;;;;6.82;3.55;;;;;;;14.29;91.94;98380.59;5019349;28;20076;-76
2023/10/06 00:46:59;;;;;;;9.05;3.85;;;;;;;14.30;91.68;98374.25;5001526;28;20049;-75
2023/10/06 00:49:28;;;;;;;11.05;4.10;;;;;;;14.48;91.42;98371.69;5034267;28;20238;-75
2023/10/06 00:51:55;;;;;;;9.23;3.95;;;;;;;14.43;91.00;98371.50;5017603;28;20051;-75
2023/10/06 00:54:25;;;;;;;10.75;3.88;;;;;;;14.47;90.80;98365.50;5017406;28;20048;-75
2023/10/06 00:56:57;;;;;;;10.27;3.75;;;;;;;14.49;90.70;98374.13;5034025;28;20045;-73
2023/10/06 00:59:24;;;;;;;11.82;4.25;;;;;;;14.52;90.42;98348.84;5034035;28;20055;-74
2023/10/06 01:01:52;;;;;;;9.55;4.18;;;;;;;14.55;90.40;98343.06;5050224;28;20053;-72
2023/10/06 01:04:25;;;;;;;10.07;3.92;;;;;;;14.60;90.38;98370.78;5017406;28;20041;-74
2023/10/06 01:06:54;;;;;;;9.65;3.80;;;;;;;14.43;90.57;98366.97;5033964;28;20045;-74
2023/10/06 01:09:30;;;;;;;10.20;3.85;;;;;;;14.41;91.24;98361.03;5017576;28;20041;-74
2023/10/06 01:11:57;;;;;;;13.48;4.35;;;;;;;14.41;91.82;98349.50;5051352;28;20045;-74
2023/10/06 01:14:27;;;;;;;15.43;4.22;;;;;;;14.44;91.92;98333.03;5034987;28;20075;-74
2023/10/06 01:17:09;;;;;;;14.70;4.00;;;;;;;14.18;93.15;98317.97;5034013;28;20195;-73
2023/10/06 01:19:47;;;;;;;11.75;4.60;;;;;;;14.28;92.39;98341.56;5013718;28;20045;-73
2023/10/06 01:22:53;;;;;;;17.40;4.20;;;;;;;14.34;92.69;98336.22;4998184;28;20053;-73
2023/10/06 01:25:13;;;;;;;14.20;3.65;;;;;;;14.26;92.92;98340.97;5028957;28;20065;-73
2023/10/06 01:27:39;;;;;;;11.57;3.65;;;;;;;14.30;93.43;98326.97;5020471;28;20067;-73
2023/10/06 01:30:24;;;;;;;10.88;4.43;;;;;;;14.24;93.92;98324.31;5039347;28;20056;-74
2023/10/06 01:32:51;;;;;;;13.43;3.85;;;;;;;14.21;94.38;98301.50;5025221;28;20135;-73
2023/10/06 01:35:23;;;;;;;13.15;3.85;;;;;;;14.14;94.66;98310.59;5038595;28;20045;-74
2023/10/06 01:38:00;;;;;;;13.18;4.60;;;;;;;14.08;94.80;98303.44;5072223;28;20084;-74
2023/10/06 01:42:53;;;;;;;11.80;4.30;;;;;;;14.08;95.49;98308.78;5039042;28;20471;-74
2023/10/06 01:45:21;;;;;;;12.45;3.72;;;;;;;13.99;95.98;98286.03;5021850;28;20239;-73
2023/10/06 01:48:21;;;;;;;12.60;4.22;;;;;;;14.25;96.54;98276.06;5022280;28;20128;-73
2023/10/06 01:50:44;;;;;;;15.48;4.03;;;;;;;14.08;96.05;98269.56;5025215;28;20040;-74
2023/10/06 01:53:10;;;;;;;15.00;4.60;;;;;;;14.06;96.50;98281.47;5022385;28;20139;-74
2023/10/06 01:55:38;;;;;;;12.82;4.25;;;;;;;13.97;97.26;98278.22;5022051;28;20142;-74
2023/10/06 01:58:04;;;;;;;15.23;4.32;;;;;;;13.94;97.39;98267.97;5013820;28;20045;-74
2023/10/06 02:00:34;;;;;;;15.32;4.68;;;;;;;13.96;98.16;98259.75;4999691;28;20037;-73
2023/10/06 02:03:03;;;;;;;12.10;3.88;;;;;;;13.92;98.62;98254.00;5000764;28;20083;-74
2023/10/06 02:05:29;;;;;;;12.43;4.70;;;;;;;13.87;98.85;98242.34;5016495;28;20061;-74
2023/10/06 02:08:00;;;;;;;13.85;4.30;;;;;;;13.91;98.80;98251.56;5000055;28;20049;-74
2023/10/06 02:10:27;;;;;;;16.65;4.68;;;;;;;13.85;99.37;98245.22;5000990;28;20042;-74
2023/10/06 02:12:53;;;;;;;13.48;4.45;;;;;;;13.79;99.84;98245.25;5016708;28;20034;-74
2023/10/06 02:15:19;;;;;;;13.02;4.93;;;;;;;13.71;99.80;98261.50;4999597;28;20058;-74
2023/10/06 02:17:45;;;;;;;12.82;4.68;;;;;;;13.78;100.00;98232.97;4999558;28;20147;-75
2023/10/06 02:20:30;;;;;;;15.27;5.00;;;;;;;13.61;100.00;98248.59;5032462;28;20376;-75
2023/10/06 02:22:59;;;;;;;15.45;5.15;;;;;;;13.78;100.00;98241.75;5002290;28;20048;-74
2023/10/06 02:25:26;;;;;;;17.23;4.90;;;;;;;13.74;100.00;98234.41;5016213;28;20049;-74
2023/10/06 02:27:56;;;;;;;15.90;4.45;;;;;;;13.77;100.00;98223.28;4999670;28;20165;-75
2023/10/06 02:30:36;;;;;;;14.07;5.10;;;;;;;13.77;100.00;98223.28;5015748;28;20033;-74
2023/10/06 02:33:05;;;;;;;14.15;4.63;;;;;;;13.76;100.00;98211.78;5017195;28;20041;-75
2023/10/06 02:35:32;;;;;;;16.25;5.07;;;;;;;13.76;100.00;98221.66;5000086;28;20041;-74
2023/10/06 02:37:58;;;;;;;13.77;5.13;;;;;;;13.79;100.00;98218.56;5000296;28;20049;-75
2023/10/06 02:40:47;;;;;;;11.85;4.68;;;;;;;13.74;100.00;98207.72;5031755;28;20046;-74
2023/10/06 02:43:20;;;;;;;12.07;4.80;;;;;;;13.83;100.00;98211.78;5015313;28;20045;-74
2023/10/06 02:45:46;;;;;;;10.95;5.00;;;;;;;13.66;100.00;98214.09;5031881;28;20077;-74
2023/10/06 02:48:16;;;;;;;15.60;4.93;;;;;;;13.68;100.00;98209.38;5031928;28;20336;-74
2023/10/06 02:50:46;;;;;;;11.75;5.25;;;;;;;13.71;100.00;98205.47;5015602;28;20463;-74
2023/10/06 02:53:20;;;;;;;14.13;5.15;;;;;;;13.67;100.00;98196.25;4983372;28;20049;-74
2023/10/06 02:55:55;;;;;;;12.63;4.97;;;;;;;13.90;100.00;98202.69;4999085;28;20041;-74
2023/10/06 02:58:30;;;;;;;12.20;4.78;;;;;;;13.80;100.00;98209.53;5015911;28;20042;-74
2023/10/06 03:00:58;;;;;;;15.00;4.50;;;;;;;13.82;100.00;98199.47;5016377;28;20153;-73
2023/10/06 03:03:27;;;;;;;11.05;5.05;;;;;;;13.79;100.00;98189.22;5014874;28;20103;-73
2023/10/06 03:05:56;;;;;;;10.20;4.30;;;;;;;13.69;100.00;98192.34;4999582;28;20148;-74
2023/10/06 03:08:25;;;;;;;17.35;5.30;;;;;;;13.63;100.00;98195.03;5015135;28;20088;-74
2023/10/06 03:10:51;;;;;;;18.95;5.70;;;;;;;13.65;100.00;98171.63;4982678;28;20132;-74
2023/10/06 03:13:32;;;;;;;14.15;5.93;;;;;;;13.77;100.00;98201.94;4998643;28;20045;-74
2023/10/06 03:16:00;;;;;;;12.20;5.53;;;;;;;13.68;100.00;98182.72;5000563;28;20175;-74
2023/10/06 03:18:26;;;;;;;14.25;5.95;;;;;;;13.61;100.00;98179.25;4998753;28;20095;-74
2023/10/06 03:21:05;;;;;;;19.15;6.45;;;;;;;13.61;100.00;98181.09;5014802;28;20042;-73
2023/10/06 03:23:38;;;;;;;14.90;6.05;;;;;;;13.59;100.00;98184.78;5004597;28;20041;-73
2023/10/06 03:26:13;;;;;;;14.40;5.80;;;;;;;13.71;100.00;98176.94;5032275;28;20041;-73
2023/10/06 03:28:42;;;;;;;10.27;6.18;;;;;;;13.63;100.00;98190.53;5014463;28;20056;-73
2023/10/06 03:33:46;;;;;;;16.30;6.45;;;;;;;13.58;100.00;98161.00;5015760;28;20323;-74
2023/10/06 03:36:16;;;;;;;16.27;7.15;;;;;;;13.62;100.00;98156.88;4982713;28;20092;-75
2023/10/06 03:38:55;;;;;;;13.32;7.03;;;;;;;13.66;100.00;98152.75;4998056;28;20045;-74
2023/10/06 03:41:32;;;;;;;;;;;;;;;13.86;100.00;98157.97;5000472;28;20085;-74
2023/10/06 03:44:05;;;;;;;17.17;6.88;;;;;;;13.64;100.00;98156.69;4999354;28;19921;-74
2023/10/06 03:46:38;;;;;;;17.35;7.00;;;;;;;13.64;100.00;98160.13;5039070;28;20057;-75
2023/10/06 03:49:05;;;;;;;13.30;7.10;;;;;;;13.76;100.00;98144.28;4993504;28;20178;-73
2023/10/06 03:51:40;;;;;;;16.73;7.20;;;;;;;13.59;100.00;98155.44;5039513;28;20140;-73
2023/10/06 03:54:10;;;;;;;19.50;6.97;;;;;;;13.69;100.00;98152.31;5009113;28;20049;-73
2023/10/06 03:56:36;;;;;;;15.93;6.95;;;;;;;13.73;100.00;98139.38;5022111;28;20038;-72
2023/10/06 03:59:12;;;;;;;11.50;6.40;;;;;;;13.76;100.00;98147.75;5008149;28;20045;-73
2023/10/06 04:01:46;;;;;;;16.08;6.60;;;;;;;13.92;100.00;98117.06;5025561;28;20053;-71
2023/10/06 04:04:14;;;;;;;;;;;;;;;14.05;100.00;98131.16;5032573;28;20156;-74
2023/10/06 04:06:40;;;;;;;15.00;6.63;;;;;;;13.76;100.00;98137.09;5022910;28;19921;-75
2023/10/06 04:09:08;;;;;;;12.95;7.18;;;;;;;13.71;100.00;98138.78;5072986;28;20037;-74
2023/10/06 04:11:35;;;;;;;16.25;7.55;;;;;;;13.76;100.00;98130.94;5016016;28;20125;-75
2023/10/06 04:14:01;;;;;;;18.52;7.22;;;;;;;13.78;100.00;98132.34;5006677;28;20045;-75
2023/10/06 04:16:27;;;;;;;16.23;7.43;;;;;;;13.77;100.00;98113.91;5032527;28;20124;-74
2023/10/06 04:18:53;;;;;;;17.02;7.43;;;;;;;13.80;100.00;98127.63;4999425;28;20156;-73
2023/10/06 04:21:20;;;;;;;21.35;7.43;;;;;;;13.83;100.00;98121.03;5000113;28;20044;-74
2023/10/06 04:23:46;;;;;;;18.40;7.47;;;;;;;13.75;100.00;98114.13;5032995;28;20546;-73
2023/10/06 04:26:16;;;;;;;16.20;6.90;;;;;;;13.90;100.00;98101.28;5028771;28;20145;-74
2023/10/06 04:28:47;;;;;;;;;;;;;;;14.03;100.00;98108.38;5029392;28;20053;-73
2023/10/06 04:31:16;;;;;;;13.15;7.13;;;;;;;13.92;100.00;98098.41;5028944;28;20116;-73
2023/10/06 04:33:43;;;;;;;15.55;6.80;;;;;;;13.76;100.00;98098.94;4996210;28;20041;-72
2023/10/06 04:36:10;;;;;;;17.90;8.00;;;;;;;13.77;100.00;98095.22;4996073;28;20042;-73
2023/10/06 04:38:38;;;;;;;15.40;7.18;;;;;;;13.88;100.00;98092.69;4980486;28;20183;-73
2023/10/06 04:41:09;;;;;;;16.67;7.70;;;;;;;13.93;100.00;98092.84;4996606;28;20352;-76
2023/10/06 04:43:44;;;;;;;20.02;7.40;;;;;;;14.04;100.00;98107.38;4980517;28;20152;-73
2023/10/06 04:46:10;;;;;;;14.50;7.82;;;;;;;13.92;100.00;98093.06;4960569;28;20054;-73
2023/10/06 04:48:36;;;;;;;26.90;9.40;;;;;;;13.94;100.00;98085.66;4992915;28;20057;-74
2023/10/06 04:51:04;;;;;;;21.58;9.55;;;;;;;13.98;100.00;98089.50;4993239;28;20104;-73
2023/10/06 04:53:35;;;;;;;16.92;8.80;;;;;;;13.87;100.00;98098.25;4993027;28;20045;-73
2023/10/06 04:56:07;;;;;;;19.38;8.68;;;;;;;14.04;100.00;98088.69;4973801;28;20083;-71
2023/10/06 04:58:38;;;;;;;19.17;8.55;;;;;;;14.04;100.00;98094.00;4975962;28;20073;-71
2023/10/06 05:01:07;;;;;;;18.70;8.05;;;;;;;13.88;100.00;98082.00;4992142;28;20159;-73
2023/10/06 05:03:43;;;;;;;17.33;6.93;;;;;;;14.07;100.00;98078.34;4993564;28;20049;-72
2023/10/06 05:06:16;;;;;;;18.65;7.50;;;;;;;14.16;100.00;98074.38;4995158;28;20160;-72
2023/10/06 05:08:48;;;;;;;17.50;7.47;;;;;;;14.35;100.00;98086.78;4995810;28;20476;-72
2023/10/06 05:11:18;;;;;;;16.27;8.10;;;;;;;14.41;100.00;98079.72;4970214;28;20060;-71
2023/10/06 05:13:47;;;;;;;12.73;6.07;;;;;;;14.30;100.00;98083.16;5034627;28;20041;-71
2023/10/06 05:16:13;;;;;;;15.68;6.95;;;;;;;14.28;100.00;98078.03;5018890;28;20126;-71
2023/10/06 05:18:39;;;;;;;14.10;6.13;;;;;;;14.31;100.00;98082.09;5019716;28;20044;-69
2023/10/06 05:21:09;;;;;;;11.15;5.63;;;;;;;14.33;100.00;98067.47;5019742;28;20466;-73
2023/10/06 05:23:35;;;;;;;12.80;5.75;;;;;;;14.34;100.00;98065.63;5053417;28;20049;-74
2023/10/06 05:26:08;;;;;;;10.23;5.30;;;;;;;14.43;100.00;98081.16;5036022;28;20363;-74
2023/10/06 05:28:37;;;;;;;12.35;5.40;;;;;;;14.42;99.95;98076.84;5020502;28;20080;-76
2023/10/06 05:31:06;;;;;;;12.50;5.88;;;;;;;14.52;100.00;98079.00;5036256;28;20049;-78
2023/10/06 05:33:33;;;;;;;13.25;5.50;;;;;;;14.40;99.87;98076.28;5019627;28;20049;-75
2023/10/06 05:36:00;;;;;;;11.98;5.38;;;;;;;14.34;100.00;98068.31;5035571;28;20057;-74
2023/10/06 05:38:26;;;;;;;15.05;5.47;;;;;;;14.40;100.00;98075.44;5018943;28;20155;-75
2023/10/06 05:40:52;;;;;;;14.70;5.63;;;;;;;14.44;99.48;98073.94;5019086;28;20142;-74
2023/10/06 05:43:24;;;;;;;10.68;5.50;;;;;;;14.63;99.24;98075.63;5019181;28;20052;-74
2023/10/06 05:45:56;;;;;;;11.75;5.32;;;;;;;14.57;98.54;98061.31;5036172;28;20055;-74
2023/10/06 05:48:28;;;;;;;12.98;5.55;;;;;;;14.62;98.36;98066.78;5019647;28;20048;-76
2023/10/06 05:51:04;;;;;;;11.38;5.13;;;;;;;14.66;97.79;98070.66;5019616;28;20452;-76
2023/10/06 05:53:38;;;;;;;13.07;4.95;;;;;;;14.72;97.56;98061.75;5020353;28;20064;-73
2023/10/06 05:56:07;;;;;;;8.60;5.00;;;;;;;14.78;97.42;98060.03;5068818;28;20490;-74
2023/10/06 05:58:34;;;;;;;11.45;4.72;;;;;;;14.80;97.12;98057.97;5052078;28;20063;-74
2023/10/06 06:01:06;;;;;;;12.43;4.70;;;;;;;14.82;96.61;98058.56;5002689;28;20098;-73
2023/10/06 06:03:33;;;;;;;10.88;4.43;;;;;;;15.00;96.08;98039.84;5020321;28;20045;-73
2023/10/06 06:06:07;;;;;;;11.93;5.03;;;;;;;15.10;94.45;98035.59;5019908;28;20502;-72
2023/10/06 06:08:37;;;;;;;10.13;4.30;;;;;;;15.33;93.71;98045.56;5054167;28;20147;-72
2023/10/06 06:11:05;;;;;;;10.48;4.40;;;;;;;15.32;92.88;98027.88;5052749;28;20051;-71
2023/10/06 06:13:33;;;;;;;15.10;4.65;;;;;;;15.23;92.52;98032.75;5018529;28;20080;-72
2023/10/06 06:15:59;;;;;;;14.77;4.78;;;;;;;15.23;92.23;98047.97;5035197;28;20045;-71
2023/10/06 06:18:27;;;;;;;12.63;4.32;;;;;;;15.17;92.36;98027.47;5018754;28;20576;-72
2023/10/06 06:20:54;;;;;;;15.48;5.10;;;;;;;15.08;92.39;98031.50;5035113;28;20041;-78
2023/10/06 06:23:20;;;;;;;13.32;4.70;;;;;;;14.93;93.05;98021.19;5037677;28;20071;-72
2023/10/06 06:25:47;;;;;;;13.77;4.80;;;;;;;15.02;93.35;98027.06;5058840;28;20478;-74
2023/10/06 06:28:16;;;;;;;11.38;4.68;;;;;;;15.02;93.94;98017.16;5037337;28;20040;-73
2023/10/06 06:30:42;;;;;;;11.32;4.97;;;;;;;14.90;94.05;98018.97;5039346;28;20143;-71
2023/10/06 06:33:19;;;;;;;10.63;4.32;;;;;;;14.97;94.42;98014.38;5041564;28;20176;-70
2023/10/06 06:35:46;;;;;;;10.35;4.55;;;;;;;14.80;94.14;98028.56;5042931;28;20219;-72
2023/10/06 06:38:12;;;;;;;14.55;4.40;;;;;;;14.81;94.17;98031.00;5020016;28;20040;-71
2023/10/06 06:40:40;;;;;;;9.13;4.43;;;;;;;14.91;94.28;98014.47;5020961;28;20063;-72
2023/10/06 06:43:09;;;;;;;11.95;4.70;;;;;;;14.99;93.82;97995.44;5037576;28;20044;-72
2023/10/06 06:45:41;;;;;;;10.48;4.72;;;;;;;14.99;93.80;98009.59;5038757;28;20040;-70
2023/10/06 06:48:16;;;;;;;9.43;4.18;;;;;;;14.88;94.18;97996.19;5053633;28;20621;-70
2023/10/06 06:50:43;;;;;;;9.82;4.22;;;;;;;14.88;94.47;98006.88;5053472;28;20499;-71
2023/10/06 06:53:11;;;;;;;10.75;4.35;;;;;;;14.98;94.31;97996.47;5053523;28;20047;-70
2023/10/06 06:55:37;;;;;;;8.02;4.10;;;;;;;15.05;93.89;97997.22;5036184;28;20037;-70
2023/10/06 06:58:10;;;;;;;11.88;4.20;;;;;;;15.19;92.93;97974.59;5053095;28;20062;-71
2023/10/06 07:00:39;;;;;;;13.90;4.53;;;;;;;15.27;92.43;97997.53;5061091;28;20119;-71
2023/10/06 07:03:06;;;;;;;8.27;3.97;;;;;;;15.35;92.02;97968.59;5033962;28;20479;-71
2023/10/06 07:05:35;;;;;;;12.40;3.88;;;;;;;15.42;90.80;97982.72;5051047;28;20168;-70
2023/10/06 07:08:03;;;;;;;8.00;3.63;;;;;;;15.53;89.70;97973.09;5034392;28;20052;-69
2023/10/06 07:10:29;;;;;;;7.63;3.50;;;;;;;15.60;89.37;97955.88;5017620;28;20140;-69
2023/10/06 07:12:58;;;;;;;8.05;3.28;;;;;;;15.43;89.00;97984.34;5049782;28;20383;-70
2023/10/06 07:15:29;;;;;;;8.48;3.25;;;;;;;15.46;89.24;97980.38;5001467;28;20055;-70
2023/10/06 07:17:57;;;;;;;7.55;3.50;;;;;;;15.43;89.45;97975.50;5033741;28;20505;-70
2023/10/06 07:20:29;;;;;;;6.20;3.13;;;;;;;15.38;90.02;97957.47;5048196;28;20108;-71
2023/10/06 07:23:00;;;;;;;10.23;3.63;;;;;;;15.38;89.50;97962.81;5048888;28;20097;-71
2023/10/06 07:25:27;;;;;;;5.65;3.20;;;;;;;15.27;89.40;97948.34;5031461;28;20045;-71
2023/10/06 07:27:57;;;;;;;6.53;3.08;;;;;;;15.25;89.78;97971.81;5049954;28;20053;-71
2023/10/06 07:30:28;;;;;;;7.53;3.28;;;;;;;15.38;89.60;97930.72;5033477;28;20056;-70
2023/10/06 07:32:55;;;;;;;;;;;;;;;15.54;88.04;97966.69;5017633;28;20080;-70
2023/10/06 07:38:24;;;;;;;5.85;2.80;;;;;;;15.41;87.69;97954.31;4976401;28;20045;-68
2023/10/06 07:40:50;;;;;;;6.43;2.90;;;;;;;15.39;87.30;97950.25;4976654;28;20471;-67
2023/10/06 07:43:17;;;;;;;4.75;2.90;;;;;;;15.41;87.32;97946.31;4976267;28;20046;-68
2023/10/06 07:45:43;;;;;;;8.15;3.10;;;;;;;15.49;86.85;97916.53;4972145;28;20479;-68
2023/10/06 07:48:09;;;;;;;9.32;3.42;;;;;;;15.65;86.72;97928.44;5049486;28;20400;-69
2023/10/06 07:50:37;;;;;;;7.55;2.92;;;;;;;15.66;86.24;97954.13;5017083;28;20375;-68
2023/10/06 07:53:03;;;;;;;12.07;2.85;;;;;;;15.76;86.25;97923.06;5033583;28;20110;-68
2023/10/06 07:55:31;;;;;;;6.05;3.10;;;;;;;15.75;85.74;97909.91;5033132;28;20402;-67
2023/10/06 07:57:57;;;;;;;11.95;3.35;;;;;;;15.80;85.88;97912.72;5049362;28;20041;-68
2023/10/06 08:00:38;;;;;;;5.85;3.10;;;;;;;15.73;85.25;97934.25;5032061;28;20442;-68
2023/10/06 08:03:05;;;;;;;9.15;3.10;;;;;;;15.75;85.48;97925.97;5035279;28;20041;-69
2023/10/06 08:05:31;;;;;;;10.20;3.30;;;;;;;15.69;85.29;97914.34;5048280;28;20041;-69
2023/10/06 08:07:58;;;;;;;7.18;3.15;;;;;;;15.56;86.11;97927.94;5048790;28;20085;-68
2023/10/06 08:10:25;;;;;;;9.07;3.10;;;;;;;15.48;86.37;97903.41;5032858;28;20127;-68
2023/10/06 08:12:56;;;;;;;7.70;2.97;;;;;;;15.46;89.20;97917.00;5032328;28;20118;-68
2023/10/06 08:15:22;;;;;;;8.05;2.78;;;;;;;15.20;90.41;97896.00;5049679;28;20446;-68
2023/10/06 08:17:51;;;;;;;7.55;3.20;;;;;;;15.24;91.95;97907.84;5033320;28;20044;-67
2023/10/06 08:20:20;;;;;;;12.60;3.63;;;;;;;15.15;93.24;97898.53;5016308;28;20098;-68
2023/10/06 08:22:47;;;;;;;6.90;3.35;;;;;;;15.13;93.89;97888.06;5049390;28;20049;-69
2023/10/06 08:25:14;;;;;;;9.32;3.97;;;;;;;15.13;93.44;97889.91;5032450;28;20052;-68
2023/10/06 08:27:42;;;;;;;8.82;4.03;;;;;;;15.16;93.42;97895.63;5049180;28;20075;-68
2023/10/06 08:30:19;;;;;;;7.28;3.50;;;;;;;15.31;93.07;97899.72;5048886;28;20099;-69
2023/10/06 08:32:52;;;;;;;7.25;3.83;;;;;;;15.51;92.48;97887.72;5050220;28;20040;-68
2023/10/06 08:35:19;;;;;;;8.13;3.78;;;;;;;15.64;90.57;97892.81;5049987;28;20055;-69
2023/10/06 08:37:56;;;;;;;10.23;3.75;;;;;;;15.72;90.30;97892.47;5035474;28;20153;-68
2023/10/06 08:40:23;;;;;;;7.43;3.35;;;;;;;15.54;89.90;97900.63;5037386;28;20041;-68
2023/10/06 08:42:58;;;;;;;8.40;3.83;;;;;;;15.68;90.00;97880.63;5020537;28;20053;-67
2023/10/06 08:45:28;;;;;;;6.28;3.45;;;;;;;15.74;89.45;97898.41;5054183;28;20041;-68
2023/10/06 08:47:59;;;;;;;6.07;3.17;;;;;;;15.68;88.45;97890.50;5054077;28;20075;-68
2023/10/06 08:50:30;;;;;;;11.32;3.90;;;;;;;15.83;88.93;97886.31;5052785;28;20098;-68
2023/10/06 08:52:57;;;;;;;5.63;2.83;;;;;;;15.91;87.97;97885.97;5020067;28;20037;-68
2023/10/06 08:55:25;;;;;;;5.43;3.47;;;;;;;15.97;87.13;97890.38;5053033;28;20079;-68
2023/10/06 08:57:53;;;;;;;5.63;2.78;;;;;;;15.99;86.38;97882.13;5054532;28;20044;-68
2023/10/06 09:00:22;;;;;;;8.25;3.00;;;;;;;15.83;86.74;97897.03;5053237;28;20135;-68
2023/10/06 09:02:50;;;;;;;5.97;2.55;;;;;;;15.82;86.38;97892.69;5019983;28;20053;-68
2023/10/06 09:05:15;;;;;;;4.60;2.40;;;;;;;15.71;85.45;97885.50;5053723;28;20045;-67
2023/10/06 09:08:01;;;;;;;4.45;2.10;;;;;;;16.01;85.61;97906.78;5053849;28;20037;-67
2023/10/06 09:10:30;;;;;;;2.17;1.95;;;;;;;16.12;84.88;97889.88;5036271;28;20409;-68
2023/10/06 09:13:05;;;;;;;3.40;2.00;;;;;;;16.27;84.72;97888.34;5052122;28;20052;-67
2023/10/06 09:15:32;;;;;;;4.53;1.90;;;;;;;16.36;83.90;97907.56;5052597;28;20462;-68
2023/10/06 09:17:59;;;;;;;4.85;1.70;;;;;;;16.87;81.70;97893.31;5052742;28;20194;-68
2023/10/06 09:20:36;;;;;;;2.55;1.67;;;;;;;17.32;79.93;97884.19;5052649;28;20036;-67
2023/10/06 09:23:03;;;;;;;5.40;1.67;;;;;;;17.18;78.60;97898.16;5020275;28;20041;-67
2023/10/06 09:25:45;;;;;;;3.33;1.70;;;;;;;17.55;77.95;97872.50;5052716;28;20190;-68
2023/10/06 09:28:16;;;;;;;4.85;1.90;;;;;;;17.67;77.01;97879.41;5018952;28;20033;-68
2023/10/06 09:30:50;;;;;;;2.35;1.55;;;;;;;18.03;75.43;97880.75;5036443;28;20045;-67
2023/10/06 09:33:23;;;;;;;3.45;1.88;;;;;;;17.99;74.96;97858.16;5052168;28;20049;-67
2023/10/06 09:36:06;;;;;;;4.85;1.65;;;;;;;17.91;75.36;97874.69;5035428;28;20045;-67
2023/10/06 09:38:32;;;;;;;5.60;1.60;;;;;;;17.64;75.19;97874.53;5035629;28;20059;-67
2023/10/06 09:40:58;;;;;;;2.78;1.60;;;;;;;17.39;75.33;97866.06;5051947;28;20051;-69
2023/10/06 09:43:25;;;;;;;3.17;1.70;;;;;;;17.24;77.05;97865.81;5035502;28;20044;-68
2023/10/06 09:45:51;;;;;;;4.30;2.10;;;;;;;16.91;78.43;97857.75;5053224;28;20056;-67
2023/10/06 09:48:26;;;;;;;3.25;1.90;;;;;;;17.05;79.63;97879.69;5051632;28;20414;-67
2023/10/06 09:50:54;;;;;;;2.35;1.65;;;;;;;18.32;76.52;97860.72;5019310;28;20080;-67
2023/10/06 09:53:20;;;;;;;4.57;1.80;;;;;;;19.53;69.43;97858.22;5052894;28;20039;-67
2023/10/06 09:55:49;;;;;;;3.33;1.88;;;;;;;21.71;63.00;97864.97;5018870;28;20051;-67
2023/10/06 09:58:17;;;;;;;1.95;1.40;;;;;;;21.77;58.65;97839.56;5034680;28;20503;-68
2023/10/06 10:00:43;;;;;;;5.25;2.55;;;;;;;21.17;59.46;97864.66;5052110;28;20041;-67
2023/10/06 10:03:13;;;;;;;11.48;5.45;;;;;;;20.39;61.84;97831.81;5019029;28;20047;-68
2023/10/06 10:05:41;;;;;;;5.32;3.40;;;;;;;20.19;63.95;97829.81;5035067;28;20206;-68
2023/10/06 10:08:07;;;;;;;5.78;2.63;;;;;;;19.81;65.14;97822.06;5018727;28;20438;-69
2023/10/06 10:10:35;;;;;;;3.88;2.40;;;;;;;19.56;65.92;97843.41;5051790;28;20135;-68
2023/10/06 10:13:21;;;;;;;2.90;1.90;;;;;;;18.99;68.02;97845.09;5050933;28;20044;-68
2023/10/06 10:16:12;;;;;;;3.67;2.25;;;;;;;18.47;70.68;97825.19;5018956;28;20044;-67
2023/10/06 10:18:39;;;;;;;5.45;3.28;;;;;;;18.27;71.58;97828.41;4958709;28;20081;-68
2023/10/06 10:21:09;;;;;;;3.72;2.55;;;;;;;17.88;72.30;97838.38;5043353;28;20483;-68
2023/10/06 10:23:39;;;;;;;4.63;2.47;;;;;;;17.61;74.29;97823.22;5035299;28;20048;-67
2023/10/06 10:26:16;;;;;;;;;;;;;;;17.43;76.88;97815.41;5052747;28;20439;-68
2023/10/06 10:28:43;;;;;;;7.40;4.00;;;;;;;16.93;79.16;97817.28;5034724;28;19921;-68
2023/10/06 10:31:17;;;;;;;3.78;2.15;;;;;;;16.67;80.45;97829.41;5051013;28;20045;-68
2023/10/06 10:33:46;;;;;;;7.68;4.20;;;;;;;16.60;82.50;97829.56;5019518;28;20044;-67
2023/10/06 10:36:12;;;;;;;6.00;4.05;;;;;;;16.28;84.38;97822.19;5002314;28;20053;-67
2023/10/06 10:38:40;;;;;;;4.50;2.30;;;;;;;16.19;87.03;97811.03;5034461;28;20051;-68
2023/10/06 10:41:08;;;;;;;5.13;2.28;;;;;;;15.76;90.14;97823.25;5018523;28;20383;-68
2023/10/06 10:43:39;;;;;;;5.18;2.58;;;;;;;15.72;93.17;97825.56;5051438;28;20375;-67
2023/10/06 10:46:06;;;;;;;;;;;;;;;15.77;93.57;97816.84;5051677;28;20076;-67
2023/10/06 10:48:34;;;;;;;12.27;7.20;;;;;;;15.45;94.67;97821.75;5017758;28;19928;-67
2023/10/06 10:51:05;;;;;;;10.38;6.70;;;;;;;15.47;95.77;97827.66;5051997;28;20067;-67
2023/10/06 10:53:37;;;;;;;6.93;4.10;;;;;;;15.49;96.24;97822.91;5050897;28;20041;-67
2023/10/06 10:56:04;;;;;;;5.88;3.53;;;;;;;15.35;96.53;97817.97;5017850;28;20102;-67
2023/10/06 10:58:44;;;;;;;4.75;3.42;;;;;;;15.45;97.92;97819.09;5034454;28;20055;-67
2023/10/06 11:01:37;;;;;;;8.65;4.85;;;;;;;15.50;98.39;97816.50;5049731;28;20143;-68
2023/10/06 11:04:35;;;;;;;6.45;3.60;;;;;;;15.40;98.72;97847.56;5034627;28;20128;-67
2023/10/06 11:07:13;;;;;;;3.05;1.60;;;;;;;15.27;97.21;97816.47;5050345;28;20037;-68
2023/10/06 11:09:40;;;;;;;7.55;1.83;;;;;;;15.03;98.68;97818.31;5034600;28;20045;-68
2023/10/06 11:12:25;;;;;;;7.53;1.95;;;;;;;15.07;100.00;97827.50;5049748;28;20058;-69
2023/10/06 11:15:02;;;;;;;3.03;1.58;;;;;;;14.98;100.00;97822.72;5051649;28;20060;-68
2023/10/06 11:17:32;;;;;;;3.35;1.75;;;;;;;14.78;100.00;97830.22;5050368;28;20063;-71
2023/10/06 11:20:13;;;;;;;4.30;2.03;;;;;;;14.72;100.00;97834.63;5001810;28;20423;-68
2023/10/06 11:22:41;;;;;;;3.55;2.10;;;;;;;14.79;100.00;97839.88;5050503;28;20038;-69
2023/10/06 11:25:10;;;;;;;7.10;2.45;;;;;;;14.80;100.00;97833.47;5017835;28;20087;-72
2023/10/06 11:27:39;;;;;;;4.45;2.40;;;;;;;14.73;100.00;97833.56;5035097;28;20115;-67
2023/10/06 11:30:11;;;;;;;3.25;2.53;;;;;;;14.89;100.00;97837.44;5016307;28;20052;-68
2023/10/06 11:32:38;;;;;;;3.08;2.05;;;;;;;14.79;100.00;97837.19;5016523;28;20060;-71
2023/10/06 11:35:04;;;;;;;3.58;1.95;;;;;;;14.82;100.00;97839.41;4983503;28;20083;-68
2023/10/06 11:37:31;;;;;;;2.88;2.00;;;;;;;14.88;100.00;97849.19;5015961;28;20124;-69
2023/10/06 11:39:57;;;;;;;3.53;2.05;;;;;;;14.98;100.00;97849.44;4983407;28;20371;-68
2023/10/06 11:42:30;;;;;;;2.75;1.60;;;;;;;15.19;100.00;97841.69;5031954;28;20044;-67
2023/10/06 11:44:57;;;;;;;3.28;1.50;;;;;;;15.20;100.00;97843.34;5015579;28;20049;-68
2023/10/06 11:47:26;;;;;;;3.30;1.60;;;;;;;15.14;100.00;97846.13;5015575;28;20083;-68
2023/10/06 11:49:59;;;;;;;3.13;1.77;;;;;;;15.23;100.00;97836.69;5031874;28;20056;-69